Time;durP1;ratioP1;P1;durP2;ratioP2;P2;SDS_P1;SDS_P2;PMS_P1;PMS_P2;Temp;Humidity;BMP_temperature;BMP_pressure;BME280_temperature;BME280_humidity;BME280_pressure;Samples;Min_cycle;Max_cycle;Signal;HPM_P1;HPM_P2
2021/05/06 00:02:15;;;;;;;6.55;4.05;;;5.20;99.90;;;3.61;87.10;100566.75;3493498;40;102415;-40
2021/05/06 00:29:54;;;;;;;6.60;4.22;;;5.40;99.90;;;3.75;87.97;100551.69;3510169;40;102436;-40
2021/05/06 00:33:46;;;;;;;6.80;4.43;;;5.20;99.90;;;3.41;86.20;100525.81;3494809;40;103099;-40
2021/05/06 00:36:13;;;;;;;7.30;4.43;;;5.10;99.90;;;3.31;86.23;100523.31;3493443;40;103082;-40
2021/05/06 00:38:46;;;;;;;7.63;4.60;;;5.00;99.90;;;3.23;86.14;100526.88;3493732;40;103362;-40
2021/05/06 00:57:05;;;;;;;6.70;4.55;;;5.00;99.90;;;3.43;88.01;100527.34;3510879;40;103066;-40
2021/05/06 01:04:49;;;;;;;9.23;5.28;;;5.10;99.90;;;3.52;87.46;100514.66;3501039;40;103366;-40
2021/05/06 01:10:09;;;;;;;10.85;5.70;;;5.20;99.90;;;3.56;86.87;100505.22;3519189;40;102209;-40
2021/05/06 01:12:37;;;;;;;8.85;5.30;;;5.20;99.90;;;3.61;87.49;100502.00;3510550;40;103981;-40
2021/05/06 01:15:07;;;;;;;9.40;5.60;;;5.20;99.90;;;3.63;86.13;100499.97;3501453;40;103388;-40
2021/05/06 01:17:35;;;;;;;10.95;6.53;;;5.20;99.90;;;3.72;87.19;100501.59;3509890;40;103258;-40
2021/05/06 01:20:06;;;;;;;10.80;6.65;;;5.30;99.90;;;3.73;86.01;100499.75;3493569;40;102360;-40
2021/05/06 01:22:35;;;;;;;11.73;7.45;;;5.30;99.90;;;3.70;86.50;100489.28;3517958;40;102305;-40
2021/05/06 01:25:05;;;;;;;10.55;7.07;;;5.30;99.90;;;3.77;87.07;100497.53;3501198;40;102405;-40
2021/05/06 01:30:29;;;;;;;11.95;7.15;;;5.40;99.90;;;3.72;86.39;100489.97;3503232;40;102334;-39
2021/05/06 01:35:54;;;;;;;12.80;7.20;;;5.30;99.90;;;3.64;86.36;100474.66;3509540;40;102506;-40
2021/05/06 01:59:35;;;;;;;9.55;6.55;;;5.10;99.90;;;3.45;85.95;100455.19;3518032;40;102486;-42
2021/05/06 02:02:04;;;;;;;10.23;6.53;;;5.10;99.90;;;3.46;85.83;100458.72;3494801;40;102300;-40
2021/05/06 02:04:31;;;;;;;12.18;6.70;;;5.10;99.90;;;3.44;86.46;100450.81;3485510;40;105038;-40
2021/05/06 02:06:59;;;;;;;10.65;6.70;;;5.10;99.90;;;3.43;86.63;100453.66;3493911;40;103634;-40
2021/05/06 02:09:37;;;;;;;7.88;5.65;;;5.10;99.90;;;3.49;85.89;100455.69;3503052;40;102932;-40
2021/05/06 02:12:09;;;;;;;10.30;6.43;;;5.10;99.90;;;3.62;85.23;100451.56;3501636;40;102200;-40
2021/05/06 02:14:52;;;;;;;8.40;5.55;;;5.20;99.90;;;3.52;86.00;100447.22;3509883;40;103451;-40
2021/05/06 02:17:20;;;;;;;10.43;6.18;;;5.20;99.90;;;3.68;84.89;100467.91;3502211;40;102787;-40
2021/05/06 02:19:49;;;;;;;11.23;5.72;;;5.30;99.90;;;3.79;85.48;100472.06;3495596;40;103324;-40
2021/05/06 02:22:21;;;;;;;9.27;4.22;;;5.30;99.90;;;3.96;86.08;100478.22;3511212;40;102342;-40
2021/05/06 02:24:53;;;;;;;6.72;4.00;;;5.50;99.90;;;3.92;85.54;100473.34;3518896;40;102516;-39
2021/05/06 02:27:21;;;;;;;7.82;3.33;;;5.50;99.90;;;3.95;85.81;100465.72;3510895;40;102469;-40
2021/05/06 02:29:49;;;;;;;6.97;3.25;;;5.50;99.90;;;3.85;85.44;100460.56;3502945;40;104268;-40
2021/05/06 02:32:16;;;;;;;6.72;3.30;;;5.50;99.90;;;3.87;86.10;100472.00;3502829;40;102539;-40
2021/05/06 02:34:45;;;;;;;7.03;3.70;;;5.50;99.90;;;3.82;86.53;100454.66;3486584;40;102879;-40
2021/05/06 02:37:14;;;;;;;4.75;2.97;;;5.50;99.90;;;3.85;86.90;100455.16;3502839;40;105399;-40
2021/05/06 02:39:45;;;;;;;5.20;3.45;;;5.50;99.90;;;3.82;87.09;100470.84;3502663;40;104818;-39
2021/05/06 02:42:14;;;;;;;7.35;3.58;;;5.40;99.90;;;3.76;88.07;100455.38;3495402;40;102666;-40
2021/05/06 02:44:42;;;;;;;8.68;4.07;;;5.40;99.90;;;3.77;88.72;100451.66;3502676;40;103060;-40
2021/05/06 02:47:09;;;;;;;7.40;3.47;;;5.40;99.90;;;3.78;87.88;100447.94;3502522;40;102443;-40
2021/05/06 02:49:43;;;;;;;8.10;4.32;;;5.40;99.90;;;3.73;88.44;100451.19;3494601;40;103208;-40
2021/05/06 02:52:18;;;;;;;6.95;4.07;;;5.30;99.90;;;3.74;88.98;100453.69;3495206;40;103273;-40
2021/05/06 02:54:52;;;;;;;7.07;3.88;;;5.30;99.90;;;3.74;89.48;100450.16;3494810;40;103234;-40
2021/05/06 03:05:13;;;;;;;9.52;4.55;;;5.30;99.90;;;3.79;89.85;100422.63;3487460;40;103251;-40
2021/05/06 03:07:43;;;;;;;9.00;4.35;;;5.40;99.90;;;3.78;88.27;100421.81;3510809;40;102856;-40
2021/05/06 03:13:08;;;;;;;8.07;3.80;;;5.30;99.90;;;3.68;88.60;100413.94;3510502;40;103675;-40
2021/05/06 03:23:27;;;;;;;7.55;3.47;;;5.30;99.90;;;3.79;88.48;100419.94;3504112;40;102384;-40
2021/05/06 03:25:56;;;;;;;7.73;3.63;;;5.40;99.90;;;3.78;89.08;100416.41;3494031;40;102335;-42
2021/05/06 03:28:27;;;;;;;8.10;3.40;;;5.40;99.90;;;3.76;87.95;100410.34;3502461;40;103201;-40
2021/05/06 04:15:39;;;;;;;5.93;1.92;;;5.30;99.90;;;3.66;87.52;100412.41;3510738;40;102177;-40
2021/05/06 04:36:30;;;;;;;5.65;2.10;;;5.30;99.90;;;3.84;87.21;100433.72;3518591;40;102371;-40
2021/05/06 04:38:58;;;;;;;6.97;2.20;;;5.40;99.90;;;3.87;87.17;100438.81;3502845;40;104120;-40
2021/05/06 05:04:52;;;;;;;7.40;3.28;;;5.80;99.90;;;4.34;85.81;100431.53;3517971;40;103171;-40
2021/05/06 05:07:24;;;;;;;5.95;2.70;;;5.90;99.90;;;4.39;84.88;100428.31;3502504;40;102277;-40
2021/05/06 05:25:29;;;;;;;6.80;3.30;;;6.10;99.90;;;4.71;84.19;100429.88;3503356;40;103951;-40
2021/05/06 05:27:58;;;;;;;5.43;3.15;;;6.20;99.90;;;4.77;84.06;100433.72;3503162;40;103398;-40
2021/05/06 05:30:28;;;;;;;5.43;2.80;;;6.30;99.90;;;4.83;84.66;100432.97;3519364;40;104295;-40
2021/05/06 05:33:08;;;;;;;5.97;3.05;;;6.30;99.90;;;4.93;84.25;100439.97;3511051;40;102378;-40
2021/05/06 05:40:50;;;;;;;7.07;3.30;;;6.60;99.90;;;5.12;81.55;100444.00;3517841;40;103515;-40
2021/05/06 05:43:32;;;;;;;6.22;2.97;;;6.60;99.90;;;5.11;81.83;100437.75;3509952;40;102385;-39
2021/05/06 05:56:26;;;;;;;7.32;4.13;;;6.80;99.90;;;5.33;81.50;100457.63;3519491;40;102475;-40
2021/05/06 05:58:55;;;;;;;7.63;4.28;;;6.80;99.90;;;5.30;82.33;100447.19;3519227;40;102680;-40
2021/05/06 06:01:24;;;;;;;7.78;3.70;;;6.80;99.90;;;5.47;82.51;100453.25;3518730;40;102257;-40
2021/05/06 06:03:52;;;;;;;9.00;4.25;;;6.90;99.90;;;5.51;81.86;100456.38;3509610;40;102395;-40
2021/05/06 06:06:19;;;;;;;8.33;4.40;;;6.90;99.90;;;5.55;81.27;100459.56;3518041;40;103096;-40
2021/05/06 06:08:46;;;;;;;7.72;4.32;;;7.00;99.90;;;5.50;80.53;100462.00;3510283;40;102627;-40
2021/05/06 06:11:13;;;;;;;7.40;4.25;;;7.00;99.90;;;5.50;80.14;100456.59;3501668;40;102415;-40
2021/05/06 06:13:41;;;;;;;10.48;4.65;;;7.00;99.90;;;5.55;81.26;100465.81;3509448;40;102666;-41
2021/05/06 06:23:53;;;;;;;8.50;5.28;;;7.10;99.90;;;5.76;80.97;100456.94;3501856;40;103249;-41
2021/05/06 06:26:21;;;;;;;9.45;5.07;;;7.20;99.90;;;5.86;80.88;100455.78;3509507;40;102404;-40
2021/05/06 06:28:51;;;;;;;9.20;5.70;;;7.30;99.90;;;5.81;80.01;100442.81;3501534;40;105343;-40
2021/05/06 06:31:22;;;;;;;9.88;5.15;;;7.30;99.90;;;6.04;80.15;100455.38;3518706;40;102524;-40
2021/05/06 06:33:50;;;;;;;11.45;5.32;;;7.40;99.90;;;6.08;79.79;100459.38;3517511;40;104172;-40
2021/05/06 06:36:18;;;;;;;8.45;5.78;;;7.50;99.90;;;6.16;79.46;100456.56;3509096;40;105252;-40
2021/05/06 06:38:47;;;;;;;10.95;5.80;;;7.50;99.90;;;6.26;79.84;100455.41;3518748;40;102392;-40
2021/05/06 06:41:14;;;;;;;;;;;7.60;99.90;;;6.23;79.05;100458.50;3517128;40;102665;-39
2021/05/06 06:43:45;;;;;;;9.50;5.50;;;7.70;99.90;;;6.26;79.52;100461.69;3509370;40;104386;-40
2021/05/06 06:46:13;;;;;;;13.30;6.95;;;7.70;99.90;;;6.09;76.82;100454.81;3518207;40;102483;-40
2021/05/06 06:48:40;;;;;;;12.55;7.30;;;7.60;99.90;;;6.15;77.51;100459.47;3501430;40;105012;-40
2021/05/06 06:51:07;;;;;;;15.07;7.53;;;7.60;99.90;;;6.13;77.86;100451.53;3509719;40;102394;-40
2021/05/06 06:53:34;;;;;;;12.90;7.20;;;7.60;99.90;;;6.10;77.24;100451.06;3508920;40;102235;-40
2021/05/06 06:56:01;;;;;;;11.18;6.72;;;7.60;99.90;;;6.13;78.17;100450.69;3509208;40;102453;-40
2021/05/06 06:58:30;;;;;;;12.20;6.38;;;7.50;99.90;;;6.09;78.18;100454.81;3493419;40;102291;-41
2021/05/06 07:00:58;;;;;;;10.82;6.60;;;7.50;99.90;;;6.09;77.88;100465.66;3509773;40;103229;-40
2021/05/06 07:03:25;;;;;;;;;;;7.50;99.90;;;6.21;77.38;100457.84;3519469;40;102229;-40
2021/05/06 07:05:52;;;;;;;10.00;6.22;;;7.60;99.90;;;6.29;78.09;100452.31;3502912;40;104395;-40
2021/05/06 07:08:23;;;;;;;10.68;6.32;;;7.70;99.90;;;6.45;78.08;100459.31;3502645;40;102318;-40
2021/05/06 07:10:55;;;;;;;11.15;6.47;;;7.80;99.90;;;6.62;77.98;100462.59;3520106;40;102358;-40
2021/05/06 07:13:24;;;;;;;9.88;5.68;;;7.90;99.90;;;6.80;77.52;100458.59;3510919;40;105094;-39
2021/05/06 07:15:55;;;;;;;10.05;6.60;;;8.00;99.90;;;6.85;75.74;100458.84;3519912;40;104565;-40
2021/05/06 07:18:23;;;;;;;10.88;6.90;;;8.10;99.90;;;6.89;75.71;100455.53;3510653;40;102388;-40
2021/05/06 07:20:51;;;;;;;;;;;8.20;99.90;;;7.16;76.62;100452.16;3495226;40;102363;-40
2021/05/06 07:23:21;;;;;;;7.95;5.78;;;8.40;99.90;;;7.40;72.88;100455.44;3510423;40;102284;-41
2021/05/06 07:25:55;;;;;;;10.45;6.57;;;8.60;99.90;;;7.53;74.00;100449.22;3510864;40;102301;-40
2021/05/06 07:28:36;;;;;;;8.85;6.38;;;8.70;99.90;;;7.73;71.33;100454.78;3519497;40;103841;-41
2021/05/06 07:31:09;;;;;;;10.43;6.30;;;8.90;99.90;;;7.96;71.92;100454.44;3520392;40;104892;-40
2021/05/06 07:33:40;;;;;;;8.65;5.60;;;9.10;99.90;;;8.21;69.31;100454.69;3510604;40;102424;-41
2021/05/06 07:36:11;;;;;;;9.05;5.80;;;9.30;99.90;;;8.32;68.31;100455.13;3519017;40;102341;-41
2021/05/06 07:38:42;;;;;;;7.32;5.22;;;9.40;99.90;;;8.17;68.02;100445.28;3520123;40;103241;-40
2021/05/06 07:41:12;;;;;;;9.07;5.60;;;9.50;99.90;;;8.18;69.30;100446.94;3517879;40;104097;-41
2021/05/06 07:43:43;;;;;;;9.57;5.05;;;9.40;99.90;;;8.06;68.17;100446.72;3519810;40;104057;-41
2021/05/06 07:46:15;;;;;;;9.73;5.40;;;9.40;99.90;;;7.88;69.51;100446.47;3632824;23;105635;-40
2021/05/06 07:48:47;;;;;;;8.75;5.32;;;9.30;99.90;;;7.82;70.88;100448.13;3529359;39;102241;-40
2021/05/06 07:51:17;;;;;;;7.90;5.38;;;9.20;99.90;;;7.83;70.17;100444.34;3520301;39;105485;-40
2021/05/06 07:53:49;;;;;;;9.10;5.28;;;9.20;99.90;;;7.89;69.98;100435.38;3527785;39;102590;-40
2021/05/06 07:56:21;;;;;;;7.07;5.05;;;9.20;99.90;;;8.06;68.86;100437.75;3528419;39;103968;-40
2021/05/06 07:58:48;;;;;;;6.60;5.07;;;9.30;99.90;;;8.20;69.42;100436.69;3529636;39;103304;-41
2021/05/06 08:01:15;;;;;;;7.90;4.93;;;9.40;99.90;;;8.32;67.50;100436.13;3528921;39;102345;-40
2021/05/06 08:03:42;;;;;;;8.43;4.95;;;9.50;99.90;;;8.34;67.47;100436.75;3527913;39;103169;-40
2021/05/06 08:06:10;;;;;;;7.28;4.32;;;9.60;99.90;;;8.34;67.62;100434.84;3536539;39;103992;-40
2021/05/06 08:08:37;;;;;;;6.85;4.95;;;9.60;99.90;;;8.31;66.99;100442.59;3529404;39;103273;-40
2021/05/06 08:11:05;;;;;;;8.05;5.10;;;9.60;99.90;;;8.32;69.66;100434.22;3529243;39;102194;-40
2021/05/06 08:13:32;;;;;;;7.70;4.90;;;9.60;99.90;;;8.45;68.02;100438.00;3535902;39;102497;-41
2021/05/06 08:15:59;;;;;;;9.25;4.70;;;9.70;99.90;;;8.64;66.37;100452.69;3527115;39;102638;-41
2021/05/06 08:18:26;;;;;;;6.90;4.88;;;9.80;99.90;;;8.84;67.16;100441.78;3528754;39;102569;-40
2021/05/06 08:20:54;;;;;;;7.43;4.97;;;10.00;99.90;;;8.97;68.88;100445.56;3528346;39;102830;-40
2021/05/06 08:23:21;;;;;;;7.10;4.82;;;10.10;99.90;;;9.06;65.89;100441.56;3527368;39;103348;-41
2021/05/06 08:25:48;;;;;;;6.70;4.33;;;10.20;99.90;;;9.36;63.98;100441.06;3528425;39;103077;-40
2021/05/06 08:28:16;;;;;;;7.00;4.30;;;10.40;99.90;;;9.58;62.62;100435.34;3536551;39;102696;-40
2021/05/06 08:30:43;;;;;;;7.10;3.88;;;10.70;99.90;;;9.64;62.45;100446.22;3529067;39;102268;-40
2021/05/06 08:33:11;;;;;;;5.90;3.70;;;10.80;99.90;;;9.75;59.59;100438.44;3529298;39;102877;-40
2021/05/06 08:35:39;;;;;;;;;;;10.90;99.90;;;9.71;60.58;100445.38;3530234;39;103174;-41
2021/05/06 08:38:06;;;;;;;7.47;4.05;;;10.90;99.90;;;9.75;60.12;100449.31;3527913;39;102514;-41
2021/05/06 08:40:34;;;;;;;7.85;4.13;;;10.90;99.90;;;9.92;59.53;100453.22;3536036;39;103100;-41
2021/05/06 08:43:09;;;;;;;7.30;4.10;;;11.00;99.90;;;10.31;63.99;100434.13;3528865;39;102358;-40
2021/05/06 08:45:43;;;;;;;6.70;3.75;;;11.30;99.90;;;10.49;59.44;100435.31;3528725;39;103029;-40
2021/05/06 08:48:17;;;;;;;6.65;3.70;;;11.50;99.90;;;10.77;59.41;100437.59;3536280;39;103536;-40
2021/05/06 08:50:45;;;;;;;6.50;4.38;;;11.70;99.90;;;10.89;58.19;100432.22;3529053;39;102699;-38
2021/05/06 08:53:14;;;;;;;5.28;4.32;;;11.90;99.90;;;11.04;60.19;100437.34;3536095;39;102293;-40
2021/05/06 08:55:42;;;;;;;6.70;3.88;;;12.10;99.90;;;10.97;56.62;100430.25;3529120;39;103147;-40
2021/05/06 08:58:13;;;;;;;5.47;3.42;;;12.10;99.90;;;10.87;56.89;100419.84;3528834;39;102420;-41
2021/05/06 09:00:40;;;;;;;7.10;3.55;;;12.10;99.90;;;10.94;59.67;100413.28;3528297;39;102376;-41
2021/05/06 09:03:09;;;;;;;7.90;3.90;;;12.10;99.90;;;11.06;55.65;100407.91;3519575;39;102498;-41
2021/05/06 09:06:17;;;;;;;7.35;4.03;;;12.10;99.90;;;11.20;54.20;100405.06;3528527;39;104048;-41
2021/05/06 09:08:51;;;;;;;6.00;3.80;;;12.30;99.90;;;11.22;55.57;100405.66;3528367;39;105037;-40
2021/05/06 09:11:31;;;;;;;6.68;3.63;;;12.30;99.90;;;11.20;54.84;100405.88;3528717;39;103094;-41
2021/05/06 09:14:09;;;;;;;6.13;3.95;;;12.30;99.90;;;10.62;53.97;100407.09;3528765;39;102425;-40
2021/05/06 09:16:40;;;;;;;7.78;4.10;;;12.00;99.90;;;10.61;56.27;100399.97;3529054;39;102439;-38
2021/05/06 09:19:13;;;;;;;6.95;4.03;;;11.90;99.90;;;10.77;55.32;100406.75;3528736;39;102425;-40
2021/05/06 09:21:45;;;;;;;5.97;3.90;;;11.90;99.90;;;10.58;55.70;100403.13;3535714;39;103123;-41
2021/05/06 09:24:26;;;;;;;5.45;3.88;;;11.80;99.90;;;10.59;57.75;100396.59;3528456;39;102313;-41
2021/05/06 09:27:05;;;;;;;8.15;4.40;;;11.80;99.90;;;10.81;57.23;100402.50;3528168;39;102406;-40
2021/05/06 09:29:45;;;;;;;5.35;3.45;;;11.90;99.90;;;10.82;56.85;100412.38;3529112;39;102881;-41
2021/05/06 09:32:19;;;;;;;5.55;3.55;;;12.00;99.90;;;10.76;57.86;100405.06;3528374;39;102411;-40
2021/05/06 09:34:52;;;;;;;5.88;3.83;;;11.90;99.90;;;10.77;55.85;100406.75;3527506;39;102359;-41
2021/05/06 09:37:30;;;;;;;5.07;3.60;;;11.90;99.90;;;10.82;56.39;100404.19;3528766;39;102504;-41
2021/05/06 09:40:04;;;;;;;5.65;3.17;;;12.00;99.90;;;10.83;55.75;100405.00;3535672;39;102287;-40
2021/05/06 09:42:45;;;;;;;4.88;3.28;;;12.00;99.90;;;10.98;55.33;100405.47;3527806;39;102456;-41
2021/05/06 09:45:25;;;;;;;6.75;3.55;;;12.10;99.90;;;11.13;51.76;100398.81;3528211;39;104172;-41
2021/05/06 09:48:12;;;;;;;5.60;3.25;;;12.20;99.90;;;11.12;54.30;100397.16;3528438;39;103334;-41
2021/05/06 09:50:45;;;;;;;5.70;3.05;;;12.30;99.90;;;11.03;54.83;100397.44;3528825;39;103237;-38
2021/05/06 09:53:18;;;;;;;5.50;3.22;;;12.20;99.90;;;10.85;52.22;100398.25;3528423;39;104100;-38
2021/05/06 09:55:47;;;;;;;5.15;2.97;;;12.10;99.90;;;10.75;55.37;100387.84;3528309;39;102380;-38
2021/05/06 09:58:18;;;;;;;5.93;3.22;;;12.00;99.90;;;10.71;54.07;100386.63;3529237;39;102348;-38
2021/05/06 10:00:48;;;;;;;6.70;2.90;;;11.90;99.90;;;10.67;55.44;100390.03;3528611;39;102126;-38
2021/05/06 10:03:20;;;;;;;4.05;2.95;;;11.90;99.90;;;10.53;54.85;100389.31;3528629;39;103846;-38
2021/05/06 10:05:51;;;;;;;5.00;2.58;;;11.80;99.90;;;10.47;54.83;100389.16;3527734;39;102314;-40
2021/05/06 10:08:34;;;;;;;4.95;2.42;;;11.70;99.90;;;10.46;56.39;100387.47;3527396;39;105744;-40
2021/05/06 10:11:13;;;;;;;4.40;2.60;;;11.70;99.90;;;10.50;54.33;100376.97;3529127;39;102836;-40
2021/05/06 10:13:43;;;;;;;5.25;2.60;;;11.70;99.90;;;10.52;54.28;100382.19;3527883;39;103252;-38
2021/05/06 10:16:14;;;;;;;7.90;2.78;;;11.70;99.90;;;10.59;51.80;100385.69;3527462;39;105003;-41
2021/05/06 10:18:44;;;;;;;4.15;2.45;;;11.70;99.90;;;10.88;53.78;100384.16;3528643;39;104015;-41
2021/05/06 10:21:18;;;;;;;3.40;2.20;;;11.90;99.90;;;11.13;52.54;100382.44;3527688;39;103245;-38
2021/05/06 10:23:49;;;;;;;3.88;2.47;;;12.10;99.90;;;11.27;52.25;100366.72;3527493;39;103075;-38
2021/05/06 10:26:19;;;;;;;5.18;2.30;;;12.30;99.90;;;11.58;52.34;100362.16;3528656;39;103260;-38
2021/05/06 10:28:52;;;;;;;4.40;2.40;;;12.50;99.90;;;11.87;50.95;100360.47;3535640;39;105687;-38
2021/05/06 10:31:20;;;;;;;3.63;2.10;;;12.80;99.90;;;12.20;46.94;100359.19;3527229;39;102425;-38
2021/05/06 10:33:49;;;;;;;4.38;2.20;;;13.00;97.80;;;12.32;52.49;100355.63;3526956;39;104091;-38
2021/05/06 10:36:18;;;;;;;3.40;2.33;;;13.20;99.90;;;12.33;47.33;100349.09;3527985;39;104471;-38
2021/05/06 10:38:45;;;;;;;3.88;2.05;;;13.40;97.70;;;12.50;46.07;100355.53;3536221;39;103251;-41
2021/05/06 10:44:05;;;;;;;2.85;1.85;;;13.60;96.00;;;12.72;48.13;100338.50;3528901;39;105814;-41
2021/05/06 10:47:02;;;;;;;3.85;2.13;;;13.80;97.50;;;13.00;49.09;100328.75;3528887;39;102560;-38
2021/05/06 10:49:51;;;;;;;4.60;1.92;;;13.90;98.70;;;13.23;46.76;100329.75;3529568;39;103320;-41
2021/05/06 10:52:36;;;;;;;3.92;1.83;;;14.20;95.50;;;13.17;43.25;100336.19;3530665;39;102473;-39
2021/05/06 10:55:05;;;;;;;3.35;2.05;;;14.20;91.00;;;13.06;44.73;100332.41;3528601;39;103196;-41
2021/05/06 10:57:34;;;;;;;5.57;2.25;;;14.20;92.60;;;12.87;46.93;100332.56;3536834;39;103445;-38
2021/05/06 11:00:23;;;;;;;2.90;1.77;;;14.00;94.20;;;12.71;44.83;100328.63;3528758;39;102301;-39
2021/05/06 11:02:56;;;;;;;5.15;2.00;;;13.90;91.90;;;12.63;45.43;100327.13;3529734;39;102471;-38
2021/05/06 11:05:28;;;;;;;3.53;1.90;;;13.70;92.60;;;12.60;46.12;100322.13;3528539;39;102971;-38
2021/05/06 11:08:07;;;;;;;3.78;1.80;;;13.60;93.00;;;12.82;42.88;100324.22;3528709;39;102541;-38
2021/05/06 11:11:05;;;;;;;3.47;1.92;;;13.80;90.00;;;13.07;46.50;100312.16;3529814;39;102242;-38
2021/05/06 11:14:01;;;;;;;3.42;1.85;;;14.00;91.60;;;13.15;41.91;100319.19;3528494;39;103334;-41
2021/05/06 11:16:28;;;;;;;3.67;1.60;;;14.10;85.80;;;13.00;39.23;100316.94;3529288;39;103135;-38
2021/05/06 11:18:57;;;;;;;2.72;1.63;;;14.20;79.50;;;12.91;43.91;100305.53;3529825;39;102429;-38
2021/05/06 11:21:37;;;;;;;4.68;1.77;;;14.10;88.60;;;13.05;46.98;100301.47;3529140;39;102307;-38
2021/05/06 11:24:25;;;;;;;3.55;2.00;;;14.10;93.10;;;13.40;46.54;100298.84;3529543;39;102343;-40
2021/05/06 11:27:08;;;;;;;3.47;2.00;;;14.30;92.20;;;13.60;38.74;100290.22;3529260;39;102196;-40
2021/05/06 11:29:38;;;;;;;2.22;1.52;;;14.50;78.10;;;13.85;41.47;100289.84;3529922;39;102259;-40
2021/05/06 11:32:23;;;;;;;4.10;1.90;;;14.70;83.40;;;13.81;43.15;100280.47;3529943;39;102375;-40
2021/05/06 11:34:53;;;;;;;3.63;1.90;;;14.80;85.10;;;13.89;43.38;100269.09;3528307;39;103828;-40
2021/05/06 11:37:30;;;;;;;2.80;1.50;;;14.80;86.80;;;13.88;41.64;100275.66;3529222;39;102764;-41
2021/05/06 11:40:05;;;;;;;4.20;2.00;;;14.80;83.40;;;13.85;40.43;100267.06;3528938;39;102646;-41
2021/05/06 11:45:24;;;;;;;3.17;1.67;;;14.80;85.00;;;14.07;41.95;100261.69;3528979;39;102392;-40
2021/05/06 11:47:54;;;;;;;2.22;1.60;;;14.90;82.50;;;14.03;44.24;100268.75;3529597;39;104006;-41
2021/05/06 11:50:33;;;;;;;3.65;1.52;;;15.00;88.70;;;13.98;45.13;100260.44;3528427;39;103322;-41
2021/05/06 11:53:03;;;;;;;3.83;1.60;;;14.90;90.00;;;13.85;43.72;100253.38;3520919;39;102329;-40
2021/05/06 11:55:42;;;;;;;4.57;1.88;;;14.90;87.50;;;13.78;40.90;100251.63;3528856;39;102532;-41
2021/05/06 11:58:11;;;;;;;2.70;1.70;;;14.80;81.00;;;13.70;40.18;100246.56;3528675;39;103337;-40
2021/05/06 12:00:40;;;;;;;3.38;2.00;;;14.80;77.30;;;13.60;41.50;100240.88;3528374;39;102323;-41
2021/05/06 12:03:11;;;;;;;3.47;1.80;;;14.70;80.00;;;13.59;44.29;100242.81;3529387;39;102279;-40
2021/05/06 12:05:59;;;;;;;5.30;2.15;;;14.70;86.40;;;13.33;39.05;100225.88;3528506;39;102466;-39
2021/05/06 12:08:32;;;;;;;4.75;2.00;;;14.60;73.50;;;13.20;40.85;100220.66;3528121;39;102374;-40
2021/05/06 12:11:04;;;;;;;4.10;1.75;;;14.50;77.50;;;13.12;39.66;100226.53;3528221;39;102499;-40
2021/05/06 12:13:35;;;;;;;4.60;1.98;;;14.30;74.60;;;12.80;40.51;100222.34;3529309;39;102141;-40
2021/05/06 12:16:22;;;;;;;2.90;1.50;;;14.20;74.90;;;12.74;44.93;100228.81;3529105;39;102373;-40
2021/05/06 12:19:01;;;;;;;3.30;1.80;;;14.10;82.70;;;12.84;42.22;100214.50;3529011;39;102247;-40
2021/05/06 12:21:32;;;;;;;3.85;1.83;;;14.00;79.30;;;12.90;43.77;100208.03;3528561;39;102221;-41
2021/05/06 12:23:59;;;;;;;2.67;1.75;;;14.00;82.50;;;12.99;41.95;100208.50;3529534;39;103185;-40
2021/05/06 12:26:28;;;;;;;4.77;1.97;;;14.10;81.40;;;13.16;41.90;100211.28;3512205;39;102528;-40
2021/05/06 12:28:56;;;;;;;3.33;1.70;;;14.10;80.10;;;13.34;43.04;100207.50;3529576;39;103111;-41
2021/05/06 12:31:24;;;;;;;2.90;1.65;;;14.30;83.30;;;13.60;44.37;100208.84;3529032;39;102498;-40
2021/05/06 12:33:53;;;;;;;3.35;1.95;;;14.50;86.50;;;13.66;40.78;100199.63;3528221;39;102209;-40
2021/05/06 12:36:21;;;;;;;3.78;1.80;;;14.60;78.40;;;13.86;42.78;100195.56;3528167;39;102284;-41
2021/05/06 12:38:49;;;;;;;3.40;1.90;;;14.70;82.90;;;14.05;40.45;100198.84;3528415;39;104067;-40
2021/05/06 12:41:18;;;;;;;3.33;1.90;;;14.90;78.20;;;14.04;39.58;100193.59;3527585;39;104886;-41
2021/05/06 12:43:50;;;;;;;4.07;1.77;;;15.00;75.80;;;14.07;44.16;100193.13;3529007;39;104059;-39
2021/05/06 12:46:26;;;;;;;3.67;2.00;;;15.00;85.70;;;14.22;43.50;100195.28;3529117;39;102415;-41
2021/05/06 12:48:58;;;;;;;3.78;1.65;;;15.10;84.00;;;14.35;45.51;100191.34;3536426;39;102545;-41
2021/05/06 12:51:33;;;;;;;3.38;1.60;;;15.20;86.90;;;14.60;40.67;100190.00;3528306;39;102462;-41
2021/05/06 12:54:11;;;;;;;4.43;1.98;;;15.40;79.80;;;14.67;37.88;100185.16;3528186;39;105767;-41
2021/05/06 12:56:42;;;;;;;4.13;1.80;;;15.60;72.80;;;14.79;37.90;100183.13;3528914;39;102435;-41
2021/05/06 12:59:29;;;;;;;3.13;1.73;;;15.70;73.20;;;14.42;35.42;100172.75;3528200;39;105076;-41
2021/05/06 13:02:08;;;;;;;4.43;1.90;;;15.50;66.00;;;14.34;38.05;100174.03;3528457;39;102368;-41
2021/05/06 13:04:55;;;;;;;3.10;1.50;;;15.40;71.40;;;14.57;41.81;100163.88;3529117;39;103223;-40
2021/05/06 13:07:26;;;;;;;4.22;1.77;;;15.50;77.50;;;14.89;39.81;100165.13;3536285;39;102558;-41
2021/05/06 13:09:53;;;;;;;3.85;1.88;;;15.70;74.70;;;15.06;35.73;100146.63;3528218;39;103200;-39
2021/05/06 13:12:23;;;;;;;3.17;1.80;;;15.90;66.80;;;15.25;36.29;100146.25;3536576;39;102409;-41
2021/05/06 13:15:01;;;;;;;3.75;2.03;;;16.00;67.50;;;15.42;35.19;100139.81;3528753;39;103333;-41
2021/05/06 13:17:40;;;;;;;4.47;1.70;;;16.20;67.70;;;15.30;34.70;100135.31;3527826;39;102319;-41
2021/05/06 13:20:28;;;;;;;2.38;1.60;;;16.30;63.00;;;15.26;34.80;100136.91;3528063;39;102747;-41
2021/05/06 13:23:08;;;;;;;4.07;1.88;;;16.20;63.40;;;15.39;36.98;100122.75;3528951;39;102176;-40
2021/05/06 13:25:56;;;;;;;3.53;1.80;;;16.30;66.70;;;15.65;36.63;100131.22;3528419;39;102283;-41
2021/05/06 13:28:34;;;;;;;2.97;1.70;;;16.40;66.40;;;15.67;38.66;100126.28;3528921;39;102281;-40
2021/05/06 13:31:22;;;;;;;2.93;1.50;;;16.60;69.80;;;15.82;39.42;100127.47;3529171;39;103096;-41
2021/05/06 13:34:12;;;;;;;3.42;1.50;;;16.60;70.40;;;15.68;35.77;100130.69;3528859;39;103481;-41
2021/05/06 13:36:42;;;;;;;3.35;1.70;;;16.70;66.30;;;15.24;34.99;100117.94;3528393;39;103304;-39
2021/05/06 13:39:14;;;;;;;2.75;1.40;;;16.50;62.30;;;15.25;34.62;100118.78;3529334;39;102296;-39
2021/05/06 13:41:45;;;;;;;5.13;1.50;;;16.30;61.20;;;15.44;36.67;100113.72;3529179;39;103135;-41
2021/05/06 13:44:25;;;;;;;3.22;1.38;;;16.20;65.00;;;15.51;37.37;100111.56;3528577;39;103163;-41
2021/05/06 13:46:56;;;;;;;4.80;1.70;;;16.40;66.00;;;15.36;36.51;100101.28;3658970;22;103358;-40
2021/05/06 13:49:29;;;;;;;4.47;1.65;;;16.40;63.80;;;15.48;38.63;100114.84;3525117;39;102405;-40
2021/05/06 13:51:59;;;;;;;2.90;1.40;;;16.30;69.10;;;15.75;38.12;100108.44;3528449;39;103607;-40
2021/05/06 13:54:28;;;;;;;3.13;1.33;;;16.50;68.20;;;15.74;37.17;100115.03;3527866;39;102264;-41
2021/05/06 13:56:57;;;;;;;2.35;1.40;;;16.50;66.40;;;15.36;34.51;100101.28;3536493;39;102385;-40
2021/05/06 13:59:24;;;;;;;4.55;1.75;;;16.30;60.70;;;15.53;35.49;100103.06;3528397;39;102392;-40
2021/05/06 14:01:54;;;;;;;5.35;1.60;;;16.40;62.80;;;15.50;34.38;100098.09;3519904;39;103130;-40
2021/05/06 14:04:23;;;;;;;2.78;1.50;;;16.30;61.30;;;15.24;33.61;100095.94;3528104;39;102428;-41
2021/05/06 14:06:50;;;;;;;3.30;1.30;;;16.20;59.00;;;15.21;34.57;100082.75;3529478;39;102745;-41
2021/05/06 14:09:18;;;;;;;6.10;1.70;;;16.20;60.80;;;15.25;38.22;100091.28;3511627;39;102411;-40
2021/05/06 14:11:47;;;;;;;;;;;16.20;66.30;;;15.19;37.38;100084.09;3529925;39;104095;-40
2021/05/06 14:14:16;;;;;;;3.35;1.42;;;16.10;65.80;;;15.18;34.66;100079.72;3529681;39;102288;-40
2021/05/06 14:16:44;;;;;;;11.57;2.75;;;16.10;60.90;;;15.14;33.73;100084.06;3529406;39;102291;-41
2021/05/06 14:19:13;;;;;;;3.72;1.40;;;16.10;60.30;;;15.05;35.06;100080.97;3530177;39;103195;-41
2021/05/06 14:21:44;;;;;;;17.92;6.15;;;16.10;61.20;;;15.02;36.47;100082.31;3521340;39;102431;-41